Time;durP1;ratioP1;P1;durP2;ratioP2;P2;SDS_P1;SDS_P2;PMS_P1;PMS_P2;Temp;Humidity;BMP_temperature;BMP_pressure;BME280_temperature;BME280_humidity;BME280_pressure;Samples;Min_cycle;Max_cycle;Signal;HPM_P1;HPM_P2
2023/06/27 00:01:25;;;;;;;2.23;1.50;;;;;;;16.48;65.55;100873.19;5007358;28;20207;-68
2023/06/27 00:03:52;;;;;;;2.30;1.50;;;;;;;16.33;66.21;100873.22;5002016;28;20212;-68
2023/06/27 00:06:19;;;;;;;3.40;1.60;;;;;;;16.27;66.41;100883.94;5007681;28;20196;-68
2023/06/27 00:08:47;;;;;;;3.57;1.70;;;;;;;16.24;67.08;100875.91;5007790;28;20220;-68
2023/06/27 00:11:14;;;;;;;2.00;1.50;;;;;;;16.17;66.87;100875.06;5002774;28;20204;-68
2023/06/27 00:13:41;;;;;;;2.23;1.70;;;;;;;16.13;66.93;100880.41;5005297;28;20235;-68
2023/06/27 00:16:12;;;;;;;4.40;1.70;;;;;;;15.96;67.58;100870.59;5008379;28;20280;-67
2023/06/27 00:18:40;;;;;;;3.73;1.67;;;;;;;15.97;68.16;100874.16;5002924;28;20295;-68
2023/06/27 00:21:07;;;;;;;3.67;1.77;;;;;;;15.88;68.61;100880.41;5006885;28;20283;-68
2023/06/27 00:23:33;;;;;;;4.30;1.70;;;;;;;15.88;68.88;100882.19;5006759;28;20254;-68
2023/06/27 00:26:01;;;;;;;3.33;1.57;;;;;;;15.83;69.13;100887.53;5005605;28;20239;-68
2023/06/27 00:28:28;;;;;;;4.67;1.90;;;;;;;15.77;69.45;100883.97;4996711;28;20479;-68
2023/06/27 00:30:54;;;;;;;2.90;1.80;;;;;;;15.66;70.67;100882.22;5007095;28;20192;-68
2023/06/27 00:33:21;;;;;;;3.27;1.60;;;;;;;15.63;70.34;100884.88;5005110;28;20645;-67
2023/06/27 00:35:47;;;;;;;5.10;1.80;;;;;;;15.61;70.76;100883.09;5001361;28;20204;-68
2023/06/27 00:38:13;;;;;;;3.23;1.60;;;;;;;15.57;70.98;100894.59;5007054;28;20724;-67
2023/06/27 00:40:40;;;;;;;3.53;1.70;;;;;;;15.48;71.76;100891.94;5007424;28;20200;-68
2023/06/27 00:43:06;;;;;;;3.77;1.80;;;;;;;15.43;72.48;100891.03;5007646;28;20786;-68
2023/06/27 00:45:33;;;;;;;1.53;1.37;;;;;;;15.36;72.71;100888.34;5006592;28;20204;-69
2023/06/27 00:48:02;;;;;;;2.70;1.63;;;;;;;15.29;73.72;100889.25;5004030;28;20196;-68
2023/06/27 00:50:30;;;;;;;6.13;1.70;;;;;;;15.40;73.69;100891.91;5008750;28;20196;-67
2023/06/27 00:52:59;;;;;;;2.40;1.67;;;;;;;15.30;73.80;100891.03;5007511;28;20224;-69
2023/06/27 00:55:26;;;;;;;2.53;1.63;;;;;;;15.34;74.40;100894.59;5007389;28;20689;-68
2023/06/27 00:57:53;;;;;;;3.17;1.50;;;;;;;15.26;74.81;100897.25;5006364;28;20247;-68
2023/06/27 01:00:20;;;;;;;4.20;1.50;;;;;;;15.16;75.58;100892.75;5008446;28;20559;-68
2023/06/27 01:02:47;;;;;;;3.87;1.93;;;;;;;15.15;75.93;100890.06;5008313;28;20248;-68
2023/06/27 01:05:16;;;;;;;3.33;1.70;;;;;;;15.05;76.74;100890.06;5001513;28;20696;-69
2023/06/27 01:08:05;;;;;;;3.23;1.77;;;;;;;14.95;77.26;100898.03;5008031;28;20306;-68
2023/06/27 01:10:49;;;;;;;2.60;1.43;;;;;;;14.81;78.22;100891.72;5010581;28;20200;-68
2023/06/27 01:13:22;;;;;;;5.03;1.80;;;;;;;14.71;79.34;100886.34;5006971;28;20234;-68
2023/06/27 01:15:52;;;;;;;3.47;1.80;;;;;;;14.64;80.00;100891.66;5006141;28;20208;-69
2023/06/27 01:18:21;;;;;;;3.60;1.60;;;;;;;14.63;80.22;100900.53;5009830;28;20568;-68
2023/06/27 01:20:49;;;;;;;2.90;1.73;;;;;;;14.59;80.78;100893.41;5004531;28;20203;-69
2023/06/27 01:23:25;;;;;;;4.43;1.90;;;;;;;14.58;81.38;100883.63;5007753;28;20220;-68
2023/06/27 01:26:05;;;;;;;3.60;1.70;;;;;;;14.54;81.47;100884.50;5009211;28;20200;-68
2023/06/27 01:28:32;;;;;;;4.93;1.77;;;;;;;14.50;81.87;100888.03;5009449;28;20738;-68
2023/06/27 01:31:03;;;;;;;4.10;2.10;;;;;;;14.47;82.49;100894.25;5008418;28;20228;-68
2023/06/27 01:33:41;;;;;;;3.20;1.73;;;;;;;14.52;82.12;100883.63;5011618;28;20670;-68
2023/06/27 01:36:13;;;;;;;3.30;1.90;;;;;;;14.64;80.85;100870.34;5002747;28;20200;-68
2023/06/27 01:38:56;;;;;;;5.83;1.80;;;;;;;14.93;78.25;100883.78;5004706;28;20201;-68
2023/06/27 01:48:46;;;;;;;3.17;1.50;;;;;;;15.17;76.56;100873.19;5003445;28;20266;-68
2023/06/27 01:51:12;;;;;;;3.17;1.70;;;;;;;15.12;76.77;100879.38;5008493;28;20283;-68
2023/06/27 01:53:38;;;;;;;3.53;1.63;;;;;;;15.04;78.06;100879.38;5006484;28;20489;-67
2023/06/27 01:56:06;;;;;;;2.03;1.70;;;;;;;14.93;78.38;100881.13;5009356;28;20240;-69
2023/06/27 01:58:33;;;;;;;2.10;1.40;;;;;;;14.92;78.81;100882.00;5006744;28;20218;-68
2023/06/27 02:01:00;;;;;;;3.33;1.70;;;;;;;14.89;79.00;100876.66;5008996;28;20238;-68
2023/06/27 02:03:26;;;;;;;4.00;1.60;;;;;;;14.94;78.59;100881.13;5003442;28;20642;-68
2023/06/27 02:05:52;;;;;;;1.97;1.67;;;;;;;14.98;78.75;100882.03;5009747;28;20196;-68
2023/06/27 02:08:19;;;;;;;5.03;1.93;;;;;;;14.97;78.32;100872.25;5010535;28;20215;-69
2023/06/27 02:10:45;;;;;;;4.70;1.60;;;;;;;15.00;78.50;100881.16;5009416;28;20308;-68
2023/06/27 02:13:12;;;;;;;4.57;2.00;;;;;;;15.07;78.12;100878.50;5037203;23;20242;-66
2023/06/27 02:15:38;;;;;;;2.43;1.70;;;;;;;15.18;77.27;100880.28;5010508;28;20208;-68
2023/06/27 02:18:05;;;;;;;2.57;1.70;;;;;;;15.26;76.98;100869.66;5023420;28;20204;-67
2023/06/27 02:20:32;;;;;;;3.13;1.70;;;;;;;15.28;76.85;100868.78;5019207;28;20197;-66
2023/06/27 02:22:58;;;;;;;4.53;1.77;;;;;;;15.33;76.54;100863.44;5023985;28;20572;-67
2023/06/27 02:25:25;;;;;;;3.50;2.03;;;;;;;15.34;76.19;100870.56;5009775;28;20235;-67
2023/06/27 02:27:51;;;;;;;3.20;1.90;;;;;;;15.31;76.61;100866.09;5007256;28;20706;-67
2023/06/27 02:30:17;;;;;;;4.13;1.87;;;;;;;15.32;76.35;100867.91;5009063;28;20216;-67
2023/06/27 02:32:44;;;;;;;3.00;1.80;;;;;;;15.38;76.27;100861.66;5010694;28;20214;-67
2023/06/27 02:35:14;;;;;;;4.83;1.80;;;;;;;15.46;75.59;100870.56;5011371;28;20197;-67
2023/06/27 02:37:42;;;;;;;6.37;2.37;;;;;;;15.47;75.53;100867.00;5000288;28;20738;-66
2023/06/27 02:40:09;;;;;;;3.77;1.70;;;;;;;15.50;75.79;100867.00;5007704;28;20854;-67
2023/06/27 02:42:35;;;;;;;2.50;1.60;;;;;;;15.48;75.46;100867.91;5007207;28;20709;-66
2023/06/27 02:45:02;;;;;;;2.43;1.60;;;;;;;15.44;75.62;100867.00;5006048;28;20644;-66
2023/06/27 02:47:28;;;;;;;2.07;1.70;;;;;;;15.36;76.39;100874.13;5010872;28;20223;-68
2023/06/27 02:49:55;;;;;;;3.70;1.73;;;;;;;15.31;77.06;100871.44;5010681;28;20224;-66
2023/06/27 02:52:21;;;;;;;4.20;1.77;;;;;;;15.31;76.98;100873.22;4993667;28;20200;-66
2023/06/27 02:54:48;;;;;;;3.70;1.70;;;;;;;15.29;76.95;100883.00;5009229;28;20235;-66
2023/06/27 02:57:14;;;;;;;2.47;1.50;;;;;;;15.31;77.23;100886.56;5008353;28;20200;-66
2023/06/27 02:59:41;;;;;;;3.93;1.60;;;;;;;15.36;76.87;100887.47;5018189;28;20196;-67
2023/06/27 03:02:07;;;;;;;3.70;1.50;;;;;;;15.35;76.98;100893.69;5016397;28;20201;-67
2023/06/27 03:04:36;;;;;;;4.33;1.60;;;;;;;15.25;77.40;100890.13;5010981;28;20220;-67
2023/06/27 03:07:03;;;;;;;1.97;1.67;;;;;;;15.12;78.30;100887.41;5010807;28;20258;-67
2023/06/27 03:09:30;;;;;;;4.70;1.70;;;;;;;15.01;79.47;100898.03;5017353;28;20220;-67
2023/06/27 03:11:56;;;;;;;5.50;1.60;;;;;;;14.92;80.65;100895.34;5015484;28;20711;-67
2023/06/27 03:14:23;;;;;;;3.07;1.60;;;;;;;14.86;80.88;100890.88;5010642;28;20256;-67
2023/06/27 03:16:49;;;;;;;2.70;1.60;;;;;;;14.80;81.26;100893.50;5010417;28;20291;-67
2023/06/27 03:19:15;;;;;;;8.77;2.73;;;;;;;15.01;81.14;100895.38;5009798;28;20202;-66
2023/06/27 03:21:52;;;;;;;3.70;1.67;;;;;;;14.99;80.88;100899.81;5002058;28;20212;-66
2023/06/27 03:24:19;;;;;;;4.10;1.83;;;;;;;15.05;81.36;100900.72;5010823;28;20219;-66
2023/06/27 03:26:45;;;;;;;4.83;1.70;;;;;;;15.06;81.58;100896.28;5012064;28;20200;-66
2023/06/27 03:29:11;;;;;;;4.87;2.03;;;;;;;15.31;80.93;100891.91;5006923;28;20219;-67
2023/06/27 03:31:38;;;;;;;2.90;2.03;;;;;;;15.30;80.61;100904.38;5013567;28;20573;-67
2023/06/27 03:34:04;;;;;;;3.33;1.90;;;;;;;15.38;79.10;100895.47;5007322;28;20653;-67
2023/06/27 03:36:33;;;;;;;2.67;1.87;;;;;;;15.39;79.45;100897.25;5014123;28;20196;-67
2023/06/27 03:39:00;;;;;;;3.63;1.90;;;;;;;15.42;78.98;100905.25;5008886;28;20193;-67
2023/06/27 03:41:26;;;;;;;4.23;2.00;;;;;;;15.38;79.19;100903.47;4986781;28;20204;-67
2023/06/27 03:43:53;;;;;;;3.20;2.10;;;;;;;15.40;79.67;100902.59;4998070;28;20220;-67
2023/06/27 03:46:19;;;;;;;4.07;2.20;;;;;;;15.57;79.63;100907.94;5010563;28;20265;-67
2023/06/27 03:48:47;;;;;;;4.30;1.73;;;;;;;15.62;78.51;100912.47;5011155;28;20670;-67
2023/06/27 03:51:13;;;;;;;3.23;1.70;;;;;;;15.70;78.20;100916.91;5013662;28;20227;-67
2023/06/27 03:53:40;;;;;;;4.00;2.00;;;;;;;15.70;78.46;100915.13;5007305;28;20596;-67
2023/06/27 03:56:06;;;;;;;4.70;2.00;;;;;;;15.81;78.18;100921.38;5015576;28;20206;-67
2023/06/27 03:58:33;;;;;;;2.77;1.77;;;;;;;15.83;78.32;100924.94;5015177;28;20287;-67
2023/06/27 04:00:59;;;;;;;4.67;1.90;;;;;;;15.90;77.85;100918.69;5019732;28;20278;-67
2023/06/27 04:03:25;;;;;;;4.57;1.67;;;;;;;15.88;78.09;100919.59;5012438;28;20235;-67
2023/06/27 04:05:52;;;;;;;5.07;1.90;;;;;;;16.01;77.62;100924.06;4992553;28;20291;-67
2023/06/27 04:08:18;;;;;;;3.67;2.30;;;;;;;16.10;77.22;100929.41;5016246;28;20201;-67
2023/06/27 04:10:45;;;;;;;3.13;1.80;;;;;;;16.16;77.13;100924.03;5021559;28;20883;-67
2023/06/27 04:13:11;;;;;;;3.73;1.90;;;;;;;16.26;77.13;100940.94;5014373;28;20219;-67
2023/06/27 04:15:40;;;;;;;3.70;2.10;;;;;;;16.18;77.46;100924.03;5009579;28;20200;-67
2023/06/27 04:18:08;;;;;;;2.43;1.90;;;;;;;16.18;77.93;100924.03;5008828;28;20659;-67
2023/06/27 04:20:35;;;;;;;3.20;1.87;;;;;;;16.19;78.53;100925.81;5020922;28;20227;-67
2023/06/27 04:23:03;;;;;;;3.00;1.70;;;;;;;16.24;79.14;100932.03;5012236;28;20316;-67
2023/06/27 04:25:32;;;;;;;3.60;2.00;;;;;;;16.32;79.18;100918.66;5012259;28;20219;-67
2023/06/27 04:27:59;;;;;;;3.83;1.57;;;;;;;16.32;79.20;100916.88;5005275;28;20202;-67
2023/06/27 04:30:26;;;;;;;3.93;1.87;;;;;;;16.37;79.26;100911.53;5022833;28;20631;-67
2023/06/27 04:32:52;;;;;;;5.47;1.83;;;;;;;16.41;79.00;100916.88;5018898;28;20553;-67
2023/06/27 04:35:19;;;;;;;2.33;1.80;;;;;;;16.48;78.67;100913.31;5007287;28;20744;-67
2023/06/27 04:37:46;;;;;;;2.50;1.70;;;;;;;16.51;77.82;100907.06;5008090;28;20208;-67
2023/06/27 04:40:12;;;;;;;3.47;1.57;;;;;;;16.55;77.04;100915.06;4990731;28;20197;-67
2023/06/27 04:42:39;;;;;;;3.60;1.83;;;;;;;16.63;76.42;100922.16;5006625;28;20214;-67
2023/06/27 04:45:06;;;;;;;4.63;1.80;;;;;;;16.68;76.62;100928.44;5020561;28;20223;-67
2023/06/27 04:47:35;;;;;;;6.40;2.37;;;;;;;16.67;76.32;100932.88;5020400;28;20196;-67
2023/06/27 04:50:05;;;;;;;2.60;1.70;;;;;;;16.74;76.40;100934.66;5010431;28;20217;-67
2023/06/27 04:52:32;;;;;;;6.03;1.67;;;;;;;16.79;76.14;100935.50;4993897;28;20210;-67
2023/06/27 04:54:58;;;;;;;5.27;1.70;;;;;;;16.85;75.49;100932.84;5024048;28;20219;-67
2023/06/27 04:57:25;;;;;;;2.73;1.70;;;;;;;16.94;75.48;100928.34;5016028;28;20290;-67
2023/06/27 04:59:51;;;;;;;6.10;2.33;;;;;;;17.07;74.94;100930.06;5014092;28;20200;-67
2023/06/27 05:02:18;;;;;;;3.63;1.80;;;;;;;17.23;73.99;100938.03;5011250;28;20664;-67
2023/06/27 05:04:44;;;;;;;10.07;2.17;;;;;;;17.25;73.53;100926.44;5011831;28;20216;-67
2023/06/27 05:07:11;;;;;;;6.03;2.00;;;;;;;17.28;73.88;100929.97;5015716;28;20200;-67
2023/06/27 05:09:37;;;;;;;3.43;1.57;;;;;;;17.26;73.31;100939.81;5013347;28;20224;-67
2023/06/27 05:12:04;;;;;;;3.53;1.87;;;;;;;17.31;73.66;100932.63;5018940;28;20204;-67
2023/06/27 05:14:30;;;;;;;4.30;1.83;;;;;;;17.36;73.12;100936.19;5014707;28;20242;-67
2023/06/27 05:16:57;;;;;;;2.70;1.73;;;;;;;17.39;73.19;100938.84;5010852;28;20243;-68
2023/06/27 05:19:23;;;;;;;7.23;1.90;;;;;;;17.46;72.81;100934.31;5017325;28;20544;-67
2023/06/27 05:21:49;;;;;;;4.10;1.97;;;;;;;17.65;72.61;100936.00;5021750;28;20207;-67
2023/06/27 05:24:16;;;;;;;5.70;1.70;;;;;;;17.78;72.29;100936.84;5015396;28;20307;-67
2023/06/27 05:26:43;;;;;;;2.20;1.60;;;;;;;17.83;71.68;100943.03;5014089;28;20283;-67
2023/06/27 05:29:09;;;;;;;3.00;1.50;;;;;;;17.93;71.24;100941.19;5012356;28;20266;-67
2023/06/27 05:31:36;;;;;;;10.23;3.57;;;;;;;17.99;71.05;100944.69;5012917;28;20204;-67
2023/06/27 05:34:02;;;;;;;2.90;1.80;;;;;;;18.05;70.91;100944.66;5018389;28;20250;-67
2023/06/27 05:36:29;;;;;;;9.87;2.93;;;;;;;18.03;70.37;100950.94;5014888;28;20201;-67
2023/06/27 05:38:55;;;;;;;2.63;1.47;;;;;;;18.12;71.06;100941.03;5010661;28;20590;-67
2023/06/27 05:41:21;;;;;;;3.37;1.50;;;;;;;18.14;69.78;100943.69;5018028;28;20585;-67
2023/06/27 05:43:48;;;;;;;3.53;1.67;;;;;;;18.08;70.01;100941.97;5016465;28;20307;-67
2023/06/27 05:46:14;;;;;;;4.07;2.10;;;;;;;18.16;70.29;100940.09;5002290;28;20302;-65
2023/06/27 05:48:41;;;;;;;4.73;1.80;;;;;;;18.10;69.95;100953.56;5011599;28;20206;-65
2023/06/27 05:51:08;;;;;;;2.70;1.47;;;;;;;18.26;69.25;100945.38;5007305;28;20219;-64
2023/06/27 05:53:34;;;;;;;4.10;1.70;;;;;;;18.34;69.05;100941.72;5007137;28;20309;-65
2023/06/27 05:56:01;;;;;;;5.23;1.50;;;;;;;18.55;67.93;100939.72;5003151;28;20196;-68
2023/06/27 05:58:29;;;;;;;3.20;1.70;;;;;;;18.67;67.32;100950.34;5012480;28;20255;-67
2023/06/27 06:00:55;;;;;;;4.07;1.93;;;;;;;18.91;66.92;100944.72;5009672;28;20196;-67
2023/06/27 06:03:22;;;;;;;2.77;1.70;;;;;;;18.92;66.70;100942.94;5010944;28;20228;-67
2023/06/27 06:05:49;;;;;;;2.50;1.73;;;;;;;19.17;65.91;100952.44;4992269;28;20222;-67
2023/06/27 06:08:15;;;;;;;4.17;1.87;;;;;;;19.51;64.20;100954.69;5007547;28;20252;-67
2023/06/27 06:10:42;;;;;;;5.27;1.77;;;;;;;19.65;63.68;100948.25;5008249;28;20224;-67
2023/06/27 06:13:08;;;;;;;5.07;1.97;;;;;;;19.71;62.25;100955.31;5008945;28;20235;-67
2023/06/27 06:15:35;;;;;;;9.63;2.00;;;;;;;19.75;62.22;100954.38;5007301;28;20568;-67
2023/06/27 06:18:01;;;;;;;7.33;1.83;;;;;;;19.94;61.46;100958.53;5009268;28;20258;-67
2023/06/27 06:20:29;;;;;;;2.27;1.90;;;;;;;20.33;60.45;100950.72;5010279;28;20201;-67
2023/06/27 06:22:55;;;;;;;2.60;1.83;;;;;;;20.54;59.39;100947.69;5014357;28;20235;-67
2023/06/27 06:25:22;;;;;;;5.43;1.90;;;;;;;20.74;58.18;100954.47;5001497;28;20227;-65
2023/06/27 06:27:48;;;;;;;5.53;1.90;;;;;;;20.69;57.66;100951.88;4999507;28;20672;-64
2023/06/27 06:30:15;;;;;;;2.53;1.73;;;;;;;20.88;56.67;100956.00;5008270;28;20702;-65
2023/06/27 06:32:41;;;;;;;4.90;2.10;;;;;;;21.04;55.90;100955.69;5022443;28;20200;-65
2023/06/27 06:35:08;;;;;;;3.10;1.80;;;;;;;21.11;55.70;100957.31;5006684;28;20204;-65
2023/06/27 06:37:34;;;;;;;4.72;2.13;;;;;;;21.21;56.25;100958.91;5011444;28;20192;-65
2023/06/27 06:40:00;;;;;;;3.92;1.90;;;;;;;21.33;55.11;100958.69;4997770;28;21129;-66
2023/06/27 06:42:27;;;;;;;3.80;1.98;;;;;;;21.40;55.41;100957.63;5007734;28;20200;-65
2023/06/27 06:44:53;;;;;;;6.15;2.10;;;;;;;21.36;54.47;100953.22;5008050;28;20215;-64
2023/06/27 06:47:20;;;;;;;3.65;1.85;;;;;;;21.61;54.35;100958.94;5015813;28;20198;-64
2023/06/27 06:49:46;;;;;;;5.88;2.28;;;;;;;21.53;53.81;100953.72;5012912;28;20653;-64
2023/06/27 06:52:13;;;;;;;2.95;1.83;;;;;;;21.85;53.11;100955.69;5011304;28;20196;-64
2023/06/27 06:54:43;;;;;;;4.35;1.88;;;;;;;22.25;51.92;100960.13;5009526;28;20228;-64
2023/06/27 06:57:10;;;;;;;3.22;1.90;;;;;;;22.44;51.18;100957.88;5008970;28;20200;-65
2023/06/27 06:59:36;;;;;;;2.10;1.70;;;;;;;22.54;49.94;100961.19;5009288;28;20205;-66
2023/06/27 07:02:03;;;;;;;5.65;2.00;;;;;;;22.64;49.65;100960.00;5012209;28;20203;-65
2023/06/27 07:04:29;;;;;;;4.32;1.63;;;;;;;23.02;49.20;100949.06;5010269;28;20661;-65
2023/06/27 07:06:55;;;;;;;2.70;1.70;;;;;;;23.59;47.21;100958.19;5010783;28;20680;-65
2023/06/27 07:09:22;;;;;;;3.45;2.05;;;;;;;24.08;45.88;100956.66;4993441;28;20196;-62
2023/06/27 07:11:50;;;;;;;3.05;1.75;;;;;;;25.82;41.74;100952.06;5002841;28;20238;-63
2023/06/27 07:14:19;;;;;;;6.28;1.77;;;;;;;28.29;36.15;100946.22;5004010;28;20227;-63
2023/06/27 07:16:45;;;;;;;2.63;1.70;;;;;;;29.43;33.19;100950.13;5008469;28;20205;-62
2023/06/27 07:19:11;;;;;;;2.17;1.60;;;;;;;30.21;32.54;100951.16;5015873;28;20211;-62
2023/06/27 07:21:38;;;;;;;4.53;1.83;;;;;;;30.53;31.69;100950.13;5007378;28;20243;-65
2023/06/27 07:24:06;;;;;;;5.68;1.90;;;;;;;31.35;29.16;100955.09;5005893;28;20215;-62
2023/06/27 07:26:32;;;;;;;4.38;1.63;;;;;;;31.84;28.97;100954.66;5003216;28;20204;-63
2023/06/27 07:28:59;;;;;;;4.90;1.67;;;;;;;32.07;27.88;100951.28;5012897;28;20580;-64
2023/06/27 07:31:25;;;;;;;3.95;1.80;;;;;;;32.17;27.67;100943.31;5011580;28;20710;-63
2023/06/27 07:33:52;;;;;;;6.72;2.00;;;;;;;31.69;29.10;100931.88;5007233;28;20227;-63
2023/06/27 07:36:18;;;;;;;3.05;1.83;;;;;;;32.53;27.39;100939.06;5002465;28;20206;-63
2023/06/27 07:38:45;;;;;;;4.80;1.73;;;;;;;32.65;26.80;100927.22;5004896;28;20200;-62
2023/06/27 07:41:12;;;;;;;4.30;1.88;;;;;;;32.04;27.17;100937.78;5010142;28;20628;-63
2023/06/27 07:43:38;;;;;;;4.63;1.80;;;;;;;31.39;28.16;100932.00;5011230;28;20699;-64
2023/06/27 07:46:05;;;;;;;5.20;2.10;;;;;;;31.88;27.63;100938.88;5010850;28;20228;-64
2023/06/27 07:48:33;;;;;;;3.97;1.65;;;;;;;31.61;28.40;100931.47;5006421;28;20196;-64
2023/06/27 07:50:59;;;;;;;3.80;1.80;;;;;;;31.56;28.02;100930.03;5010313;28;20565;-64
2023/06/27 07:53:26;;;;;;;6.43;1.83;;;;;;;32.01;27.67;100934.34;5006074;28;20235;-64
2023/06/27 07:55:52;;;;;;;3.88;2.10;;;;;;;32.04;27.44;100931.41;5006290;28;20204;-64
2023/06/27 07:58:18;;;;;;;4.82;2.10;;;;;;;32.34;26.80;100920.22;5005982;28;20254;-64
2023/06/27 08:00:45;;;;;;;2.60;1.70;;;;;;;31.65;27.49;100918.47;5007422;28;20205;-66
2023/06/27 08:03:14;;;;;;;4.57;1.60;;;;;;;31.42;26.97;100925.44;5009708;28;20219;-65
2023/06/27 08:05:40;;;;;;;3.03;1.85;;;;;;;31.66;27.10;100914.75;5008019;28;20204;-66
2023/06/27 08:08:10;;;;;;;3.47;1.98;;;;;;;30.12;29.08;100916.19;5007906;28;20676;-65
2023/06/27 08:10:36;;;;;;;4.72;1.73;;;;;;;30.46;29.05;100920.53;5009461;28;20267;-66
2023/06/27 08:15:32;;;;;;;3.40;1.50;;;;;;;30.73;28.81;100916.09;5044434;23;20704;-64
2023/06/27 08:18:00;;;;;;;3.97;1.67;;;;;;;30.90;29.04;100912.34;5015029;28;20663;-64
2023/06/27 08:20:31;;;;;;;6.07;1.77;;;;;;;30.93;28.63;100920.34;5014703;28;20683;-65
2023/06/27 08:22:57;;;;;;;4.20;1.58;;;;;;;30.22;28.98;100920.13;5023978;28;20213;-64
2023/06/27 08:25:24;;;;;;;3.50;1.60;;;;;;;30.05;29.49;100920.28;5003607;28;20759;-66
2023/06/27 08:27:50;;;;;;;7.00;1.80;;;;;;;29.23;30.28;100910.34;5001350;28;20196;-66
2023/06/27 08:30:17;;;;;;;4.13;1.80;;;;;;;29.07;30.62;100903.06;5003513;28;20513;-63
2023/06/27 08:32:43;;;;;;;4.05;1.80;;;;;;;28.24;31.38;100899.28;4999507;28;20283;-65
2023/06/27 08:35:10;;;;;;;4.50;1.58;;;;;;;28.55;31.17;100900.41;5004185;28;20252;-65
2023/06/27 08:37:36;;;;;;;5.32;2.00;;;;;;;28.34;31.75;100889.66;5000684;28;20197;-67
2023/06/27 08:40:03;;;;;;;7.70;1.58;;;;;;;27.48;33.02;100884.00;5002892;28;20192;-65
2023/06/27 08:42:33;;;;;;;2.90;1.58;;;;;;;27.91;33.13;100898.25;5004704;28;20627;-67
2023/06/27 08:45:01;;;;;;;3.17;1.50;;;;;;;26.68;33.60;100881.38;5004724;28;20212;-68
2023/06/27 08:47:29;;;;;;;3.53;1.52;;;;;;;26.31;34.93;100881.22;5002446;28;20196;-67
2023/06/27 08:50:03;;;;;;;4.65;2.00;;;;;;;26.06;34.84;100881.44;4999282;28;20204;-67
2023/06/27 08:52:37;;;;;;;3.47;1.80;;;;;;;25.95;35.46;100883.69;5005338;28;20600;-68
2023/06/27 08:55:09;;;;;;;5.93;1.77;;;;;;;26.28;35.21;100879.53;4998435;28;20267;-69
2023/06/27 08:57:36;;;;;;;11.45;1.70;;;;;;;26.45;35.78;100876.13;4998987;28;20576;-66
2023/06/27 09:00:12;;;;;;;2.75;1.77;;;;;;;26.48;35.01;100882.31;5006030;28;20679;-64
2023/06/27 09:02:40;;;;;;;2.78;1.60;;;;;;;26.00;35.16;100862.66;5002875;28;20196;-69
2023/06/27 09:05:07;;;;;;;3.67;1.90;;;;;;;26.54;35.09;100854.84;5001272;28;20303;-65
2023/06/27 09:07:34;;;;;;;3.28;1.60;;;;;;;26.33;33.39;100860.31;4999641;28;20932;-65
2023/06/27 09:10:02;;;;;;;2.58;1.55;;;;;;;25.76;34.10;100856.47;4999934;28;20204;-67
2023/06/27 09:12:30;;;;;;;4.55;1.65;;;;;;;26.07;33.86;100866.91;5003847;28;20783;-68
2023/06/27 09:14:57;;;;;;;1.88;1.42;;;;;;;26.41;32.09;100850.03;5000410;28;20695;-66
2023/06/27 09:17:23;;;;;;;2.40;1.33;;;;;;;26.74;31.58;100853.94;4999270;28;20192;-66
2023/06/27 09:19:49;;;;;;;3.63;1.80;;;;;;;27.48;30.61;100844.06;5002893;28;20210;-66
2023/06/27 09:22:18;;;;;;;5.40;1.75;;;;;;;26.70;31.51;100859.59;5000384;28;20204;-66
2023/06/27 09:24:46;;;;;;;4.22;1.75;;;;;;;26.97;30.30;100850.16;5000468;28;20592;-67
2023/06/27 09:27:31;;;;;;;3.55;1.50;;;;;;;27.13;31.25;100858.50;5002855;28;20203;-65
2023/06/27 09:30:02;;;;;;;4.20;1.50;;;;;;;26.84;31.62;100866.16;5001962;28;20210;-67
2023/06/27 09:32:29;;;;;;;2.75;1.50;;;;;;;25.85;32.66;100864.19;5006399;28;20199;-66
2023/06/27 09:35:00;;;;;;;1.92;1.45;;;;;;;25.71;32.52;100877.47;5005865;28;20255;-67
2023/06/27 09:37:33;;;;;;;4.82;1.67;;;;;;;25.47;33.05;100869.34;5006082;28;20193;-65
2023/06/27 09:40:17;;;;;;;3.47;1.80;;;;;;;25.57;33.28;100864.41;5004192;28;20286;-67
2023/06/27 09:42:51;;;;;;;2.00;1.38;;;;;;;25.76;33.56;100851.91;5007082;28;20215;-68
2023/06/27 09:45:23;;;;;;;5.15;1.35;;;;;;;25.70;32.71;100854.00;5007009;28;20691;-67
2023/06/27 09:47:52;;;;;;;2.38;1.40;;;;;;;25.42;32.95;100856.91;5006168;28;20211;-68
2023/06/27 09:50:27;;;;;;;3.50;1.73;;;;;;;25.43;33.67;100856.84;5003928;28;20200;-66
2023/06/27 09:52:58;;;;;;;2.97;1.80;;;;;;;25.96;33.00;100852.88;5007470;28;20199;-65
2023/06/27 09:55:25;;;;;;;2.83;1.60;;;;;;;26.08;32.78;100855.09;5006133;28;20224;-67
2023/06/27 09:57:52;;;;;;;2.50;1.20;;;;;;;26.64;31.71;100841.72;5005952;28;20624;-66
2023/06/27 10:00:21;;;;;;;5.50;1.48;;;;;;;27.12;31.69;100846.72;5001696;28;20192;-67
2023/06/27 10:02:48;;;;;;;4.43;1.67;;;;;;;26.59;30.81;100846.50;5004433;28;20214;-65
2023/06/27 10:05:15;;;;;;;4.93;1.90;;;;;;;26.77;30.90;100851.06;5004441;28;20311;-67
2023/06/27 10:07:43;;;;;;;3.55;2.40;;;;;;;27.23;31.19;100848.06;5006182;28;20582;-67
2023/06/27 10:10:11;;;;;;;2.45;1.55;;;;;;;27.74;28.98;100861.88;5009811;28;20274;-68
2023/06/27 10:12:38;;;;;;;2.70;1.48;;;;;;;28.48;27.92;100844.47;5002174;28;20193;-67
2023/06/27 10:15:08;;;;;;;3.85;1.55;;;;;;;28.79;27.52;100841.81;5003897;28;20654;-67
2023/06/27 10:17:35;;;;;;;3.38;1.40;;;;;;;28.51;27.11;100856.09;5006424;28;20196;-68
2023/06/27 10:20:04;;;;;;;1.42;1.25;;;;;;;27.91;25.05;100852.84;5003969;28;20291;-67
2023/06/27 10:22:34;;;;;;;3.05;1.40;;;;;;;28.05;26.36;100847.56;5000885;28;20197;-69
2023/06/27 10:25:04;;;;;;;3.45;1.40;;;;;;;28.53;25.97;100845.09;5003431;28;20254;-67
2023/06/27 10:27:38;;;;;;;2.90;1.50;;;;;;;28.94;24.54;100845.59;5000855;28;20238;-67
2023/06/27 10:30:07;;;;;;;2.08;1.48;;;;;;;29.22;25.15;100847.63;5000438;28;20205;-63
2023/06/27 10:32:43;;;;;;;3.70;1.30;;;;;;;28.58;25.56;100843.88;5000890;28;20228;-66
2023/06/27 10:35:30;;;;;;;2.28;1.30;;;;;;;28.34;26.29;100837.00;4999024;28;20223;-66
2023/06/27 10:38:15;;;;;;;2.55;1.60;;;;;;;29.24;26.52;100832.09;5000406;28;20200;-66
2023/06/27 10:40:59;;;;;;;2.10;1.60;;;;;;;29.68;24.98;100835.00;5004479;28;20196;-66
2023/06/27 10:43:52;;;;;;;2.08;1.50;;;;;;;29.88;23.53;100834.69;4997327;28;20212;-66
2023/06/27 10:46:26;;;;;;;5.70;1.65;;;;;;;30.15;23.27;100834.03;4998862;28;22323;-67
2023/06/27 10:48:57;;;;;;;2.50;1.20;;;;;;;30.28;23.11;100815.03;5000276;28;20196;-68
2023/06/27 10:51:33;;;;;;;2.75;1.25;;;;;;;30.27;22.63;100810.53;5000956;28;20318;-67
2023/06/27 10:54:09;;;;;;;2.35;1.40;;;;;;;30.28;23.12;100818.66;4998632;28;20220;-69
2023/06/27 10:56:39;;;;;;;3.80;1.45;;;;;;;30.35;23.00;100811.81;5000174;28;20330;-68
2023/06/27 10:59:09;;;;;;;2.00;1.48;;;;;;;30.67;22.23;100811.69;4999136;28;20891;-68
2023/06/27 11:01:41;;;;;;;2.63;1.50;;;;;;;30.23;22.81;100807.13;4999560;28;20201;-69
2023/06/27 11:04:17;;;;;;;4.50;1.30;;;;;;;29.69;23.86;100814.03;4998834;28;20216;-69
2023/06/27 11:06:45;;;;;;;5.82;1.75;;;;;;;29.76;24.71;100813.59;4997973;28;21151;-70
2023/06/27 11:09:17;;;;;;;6.68;2.30;;;;;;;29.82;23.60;100812.34;4999515;28;20236;-68
2023/06/27 11:12:11;;;;;;;2.10;1.50;;;;;;;29.52;23.51;100810.44;4998262;28;20220;-68
2023/06/27 11:14:43;;;;;;;1.83;1.52;;;;;;;29.67;23.28;100807.78;5002041;28;20617;-68
2023/06/27 11:17:13;;;;;;;3.20;1.40;;;;;;;29.44;23.73;100798.22;5002081;28;20287;-67
2023/06/27 11:19:42;;;;;;;3.35;1.73;;;;;;;29.25;24.17;100801.09;5003344;28;20204;-68
2023/06/27 11:22:09;;;;;;;6.90;1.88;;;;;;;29.21;24.32;100794.03;4999831;28;20246;-70
2023/06/27 11:24:36;;;;;;;2.65;1.45;;;;;;;29.07;24.01;100797.56;5003413;28;20619;-68
2023/06/27 11:27:07;;;;;;;4.22;1.70;;;;;;;28.39;24.67;100800.38;5002235;28;20208;-69
2023/06/27 11:29:34;;;;;;;2.65;1.20;;;;;;;28.00;25.09;100795.16;5002190;28;20212;-68
2023/06/27 11:32:00;;;;;;;5.00;1.75;;;;;;;27.37;26.08;100796.59;5001167;28;20223;-68
2023/06/27 11:34:28;;;;;;;3.90;1.75;;;;;;;27.11;26.18;100792.41;4998107;28;20224;-70
2023/06/27 11:36:55;;;;;;;2.78;1.60;;;;;;;27.24;26.37;100799.03;5003155;28;20200;-65
2023/06/27 11:39:22;;;;;;;2.03;1.50;;;;;;;26.87;26.81;100796.31;5001633;28;20227;-65